createdAt,value
2017-04-12T00:00:38.613Z,0
2017-04-12T00:01:19.185Z,0
2017-04-12T00:01:59.771Z,0
2017-04-12T00:02:40.357Z,0
2017-04-12T00:03:20.943Z,0
2017-04-12T00:04:01.518Z,0
2017-04-12T00:04:42.101Z,0
2017-04-12T00:05:22.691Z,0
2017-04-12T00:06:03.266Z,0
2017-04-12T00:06:43.851Z,0
2017-04-12T00:07:24.434Z,0
2017-04-12T00:08:05.002Z,0
2017-04-12T00:08:45.588Z,0
2017-04-12T00:09:26.172Z,0
2017-04-12T00:10:06.750Z,0
2017-04-12T00:10:47.342Z,0
2017-04-12T00:11:27.910Z,0
2017-04-12T00:12:08.499Z,0
2017-04-12T00:12:49.085Z,0
2017-04-12T00:13:29.698Z,0
2017-04-12T00:14:10.247Z,0
2017-04-12T00:14:50.832Z,0
2017-04-12T00:15:31.414Z,0
2017-04-12T00:16:11.990Z,0
2017-04-12T00:16:52.563Z,0
2017-04-12T00:17:33.144Z,0
2017-04-12T00:18:13.702Z,0
2017-04-12T00:18:54.288Z,0
2017-04-12T00:19:34.858Z,0
2017-04-12T00:20:15.453Z,0
2017-04-12T00:20:56.033Z,0
2017-04-12T00:21:36.599Z,0
2017-04-12T00:22:17.170Z,0
2017-04-12T00:22:57.747Z,0
2017-04-12T00:23:38.319Z,0
2017-04-12T00:24:18.902Z,0
2017-04-12T00:24:59.483Z,0
2017-04-12T00:25:41.146Z,0
2017-04-12T00:26:21.711Z,0
2017-04-12T00:27:02.289Z,0
2017-04-12T00:27:42.862Z,0
2017-04-12T00:28:23.454Z,0
2017-04-12T00:29:04.039Z,0
2017-04-12T00:29:44.609Z,0
2017-04-12T00:30:25.195Z,0
2017-04-12T00:31:05.774Z,0
2017-04-12T00:31:46.366Z,0
2017-04-12T00:32:26.944Z,0
2017-04-12T00:33:07.527Z,0
2017-04-12T00:33:48.111Z,0
2017-04-12T00:34:28.687Z,0
2017-04-12T00:35:09.267Z,0
2017-04-12T00:35:49.848Z,0
2017-04-12T00:36:30.420Z,0
2017-04-12T00:37:11.005Z,0
2017-04-12T00:37:51.588Z,0
2017-04-12T00:38:32.166Z,0
2017-04-12T00:39:12.735Z,0
2017-04-12T00:39:53.306Z,0
2017-04-12T00:40:33.889Z,0
2017-04-12T00:41:14.461Z,0
2017-04-12T00:41:55.042Z,0
2017-04-12T00:42:35.622Z,0
2017-04-12T00:43:16.200Z,0
2017-04-12T00:43:56.781Z,0
2017-04-12T00:44:37.363Z,0
2017-04-12T00:45:17.947Z,0
2017-04-12T00:45:58.524Z,0
2017-04-12T00:46:39.104Z,0
2017-04-12T00:47:19.691Z,0
2017-04-12T00:48:00.271Z,0
2017-04-12T00:48:40.879Z,0
2017-04-12T00:49:21.437Z,0
2017-04-12T00:50:02.030Z,0
2017-04-12T00:50:42.610Z,0
2017-04-12T00:51:23.188Z,0
2017-04-12T00:52:03.770Z,0
2017-04-12T00:52:44.353Z,0
2017-04-12T00:53:24.934Z,0
2017-04-12T00:54:05.521Z,0
2017-04-12T00:54:46.101Z,0
2017-04-12T00:55:26.682Z,0
2017-04-12T00:56:07.263Z,0
2017-04-12T00:56:47.837Z,0
2017-04-12T00:57:28.433Z,0
2017-04-12T00:58:09.002Z,0
2017-04-12T00:59:00.242Z,0
2017-04-12T00:59:40.824Z,0
2017-04-12T01:00:36.242Z,0
2017-04-12T01:01:16.824Z,0
2017-04-12T01:01:57.410Z,0
2017-04-12T01:02:37.997Z,0
2017-04-12T01:03:18.572Z,0
2017-04-12T01:03:59.165Z,0
2017-04-12T01:04:39.740Z,0
2017-04-12T01:05:22.762Z,0
2017-04-12T01:06:02.665Z,0
2017-04-12T01:06:42.161Z,0
2017-04-12T01:07:22.739Z,0
2017-04-12T01:08:03.317Z,0
2017-04-12T01:08:43.906Z,0
2017-04-12T01:09:24.487Z,0
2017-04-12T01:10:05.066Z,0
2017-04-12T01:10:45.645Z,0
2017-04-12T01:11:26.231Z,0
2017-04-12T01:12:06.818Z,0
2017-04-12T01:12:47.382Z,0
2017-04-12T01:13:27.977Z,0
2017-04-12T01:14:08.542Z,0
2017-04-12T01:14:49.126Z,0
2017-04-12T01:15:29.710Z,0
2017-04-12T01:16:10.288Z,0
2017-04-12T01:16:50.877Z,0
2017-04-12T01:17:31.459Z,0
2017-04-12T01:18:12.027Z,0
2017-04-12T01:18:52.615Z,0
2017-04-12T01:19:33.202Z,0
2017-04-12T01:20:13.786Z,0
2017-04-12T01:20:54.375Z,0
2017-04-12T01:21:34.948Z,0
2017-04-12T01:22:15.533Z,0
2017-04-12T01:22:56.118Z,0
2017-04-12T01:23:36.697Z,0
2017-04-12T01:24:17.283Z,0
2017-04-12T01:24:57.861Z,0
2017-04-12T01:25:38.443Z,0
2017-04-12T01:26:19.026Z,0
2017-04-12T01:26:59.607Z,0
2017-04-12T01:27:40.188Z,0
2017-04-12T01:28:20.767Z,0
2017-04-12T01:29:01.353Z,0
2017-04-12T01:29:41.925Z,0
2017-04-12T01:30:22.512Z,0
2017-04-12T01:31:03.093Z,0
2017-04-12T01:31:43.665Z,0
2017-04-12T01:32:24.251Z,0
2017-04-12T01:33:04.832Z,0
2017-04-12T01:33:45.416Z,0
2017-04-12T01:34:25.991Z,0
2017-04-12T01:35:06.564Z,0
2017-04-12T01:35:47.148Z,0
2017-04-12T01:36:27.735Z,0
2017-04-12T01:37:08.313Z,0
2017-04-12T01:37:48.941Z,0
2017-04-12T01:38:29.481Z,0
2017-04-12T01:39:10.064Z,0
2017-04-12T01:39:50.644Z,0
2017-04-12T01:42:08.583Z,0
2017-04-12T01:42:49.160Z,0
2017-04-12T01:43:29.730Z,0
2017-04-12T01:44:10.312Z,0
2017-04-12T01:44:50.895Z,0
2017-04-12T01:45:31.484Z,0
2017-04-12T01:46:12.063Z,0
2017-04-12T01:46:52.713Z,0
2017-04-12T01:47:33.227Z,0
2017-04-12T01:48:13.806Z,0
2017-04-12T01:48:54.391Z,0
2017-04-12T01:49:34.969Z,0
2017-04-12T01:50:15.548Z,0
2017-04-12T01:50:56.128Z,0
2017-04-12T01:51:36.710Z,0
2017-04-12T01:52:17.296Z,0
2017-04-12T01:52:57.878Z,0
2017-04-12T01:53:38.464Z,0
2017-04-12T01:54:19.039Z,0
2017-04-12T01:54:59.608Z,0
2017-04-12T01:55:40.183Z,0
2017-04-12T01:56:20.787Z,0
2017-04-12T01:57:01.331Z,0
2017-04-12T01:57:41.911Z,0
2017-04-12T01:58:22.500Z,0
2017-04-12T01:59:03.076Z,0
2017-04-12T01:59:43.662Z,0
2017-04-12T02:00:24.238Z,0
2017-04-12T02:01:04.821Z,0
2017-04-12T02:01:45.398Z,0
2017-04-12T02:02:42.983Z,0
2017-04-12T02:03:23.568Z,0
2017-04-12T02:04:04.154Z,0
2017-04-12T02:04:44.733Z,0
2017-04-12T02:05:25.315Z,0
2017-04-12T02:06:05.882Z,0
2017-04-12T02:06:46.488Z,0
2017-04-12T02:07:27.065Z,0
2017-04-12T02:08:07.645Z,0
2017-04-12T02:08:48.234Z,0
2017-04-12T02:09:28.809Z,0
2017-04-12T02:10:09.393Z,0
2017-04-12T02:10:49.977Z,0
2017-04-12T02:13:28.274Z,0
2017-04-12T02:14:08.857Z,0
2017-04-12T02:14:49.441Z,0
2017-04-12T02:15:30.025Z,0
2017-04-12T02:16:10.606Z,0
2017-04-12T02:16:51.189Z,0
2017-04-12T02:17:31.776Z,0
2017-04-12T02:18:12.351Z,0
2017-04-12T02:18:52.932Z,0
2017-04-12T02:19:33.504Z,0
2017-04-12T02:20:14.081Z,0
2017-04-12T02:20:54.662Z,0
2017-04-12T02:21:35.242Z,0
2017-04-12T02:22:15.830Z,0
2017-04-12T02:22:56.502Z,0
2017-04-12T02:23:37.075Z,0
2017-04-12T02:24:17.656Z,0
2017-04-12T02:24:58.221Z,0
2017-04-12T02:25:38.788Z,0
2017-04-12T02:26:19.367Z,0
2017-04-12T02:26:59.953Z,0
2017-04-12T02:27:40.528Z,0
2017-04-12T02:28:21.107Z,0
2017-04-12T02:29:01.694Z,0
2017-04-12T02:29:56.798Z,0
2017-04-12T02:30:37.382Z,0
2017-04-12T02:31:17.964Z,0
2017-04-12T02:31:58.547Z,0
2017-04-12T02:32:39.118Z,0
2017-04-12T02:33:19.693Z,0
2017-04-12T02:34:00.280Z,0
2017-04-12T02:34:40.858Z,0
2017-04-12T02:35:21.444Z,0
2017-04-12T02:37:54.631Z,0
2017-04-12T02:38:35.207Z,0
2017-04-12T02:39:15.784Z,0
2017-04-12T02:39:56.367Z,0
2017-04-12T02:40:36.944Z,0
2017-04-12T02:41:17.532Z,0
2017-04-12T02:41:58.112Z,0
2017-04-12T02:42:38.693Z,0
2017-04-12T02:43:19.271Z,0
2017-04-12T02:43:59.847Z,0
2017-04-12T02:44:40.427Z,0
2017-04-12T02:45:21.006Z,0
2017-04-12T02:46:01.572Z,0
2017-04-12T02:46:42.153Z,0
2017-04-12T02:47:22.737Z,0
2017-04-12T02:48:03.312Z,0
2017-04-12T02:48:43.895Z,0
2017-04-12T02:49:25.482Z,0
2017-04-12T02:50:05.383Z,0
2017-04-12T02:50:45.946Z,0
2017-04-12T02:51:26.530Z,0
2017-04-12T02:52:07.116Z,0
2017-04-12T02:52:47.690Z,0
2017-04-12T02:53:28.273Z,0
2017-04-12T02:54:08.857Z,0
2017-04-12T02:54:49.432Z,0
2017-04-12T02:55:29.995Z,0
2017-04-12T02:56:10.584Z,0
2017-04-12T02:56:51.154Z,0
2017-04-12T02:57:31.737Z,0
2017-04-12T02:58:12.323Z,0
2017-04-12T02:58:52.903Z,0
2017-04-12T02:59:33.480Z,0
2017-04-12T03:00:14.061Z,0
2017-04-12T03:00:54.632Z,0
2017-04-12T03:01:35.218Z,0
2017-04-12T03:02:15.817Z,0
2017-04-12T03:02:56.398Z,0
2017-04-12T03:03:36.983Z,0
2017-04-12T03:04:17.562Z,0
2017-04-12T03:04:58.149Z,0
2017-04-12T03:05:38.727Z,0
2017-04-12T03:06:19.313Z,0
2017-04-12T03:06:59.897Z,0
2017-04-12T03:07:40.479Z,0
2017-04-12T03:08:21.059Z,0
2017-04-12T03:09:01.643Z,0
2017-04-12T03:09:42.220Z,0
2017-04-12T03:10:22.797Z,0
2017-04-12T03:11:03.386Z,0
2017-04-12T03:11:43.959Z,0
2017-04-12T03:12:24.582Z,0
2017-04-12T03:13:05.128Z,0
2017-04-12T03:13:45.715Z,0
2017-04-12T03:14:26.297Z,0
2017-04-12T03:15:06.883Z,0
2017-04-12T03:15:47.469Z,0
2017-04-12T03:16:28.055Z,0
2017-04-12T03:17:08.643Z,0
2017-04-12T03:17:49.223Z,0
2017-04-12T03:18:29.795Z,0
2017-04-12T03:19:10.377Z,0
2017-04-12T03:19:50.960Z,0
2017-04-12T03:20:31.648Z,0
2017-04-12T03:21:12.230Z,0
2017-04-12T03:21:52.814Z,0
2017-04-12T03:22:33.430Z,0
2017-04-12T03:23:19.862Z,0
2017-04-12T03:24:00.448Z,0
2017-04-12T03:24:41.029Z,0
2017-04-12T03:25:21.653Z,0
2017-04-12T03:26:02.380Z,0
2017-04-12T03:26:43.233Z,0
2017-04-12T03:27:23.918Z,0
2017-04-12T03:28:04.728Z,0
2017-04-12T03:28:45.562Z,0
2017-04-12T03:29:26.352Z,0
2017-04-12T03:30:07.373Z,0
2017-04-12T03:30:47.961Z,0
2017-04-12T03:31:28.739Z,0
2017-04-12T03:32:09.660Z,0
2017-04-12T03:32:50.327Z,0
2017-04-12T03:33:31.061Z,0
2017-04-12T03:34:11.820Z,0
2017-04-12T03:34:52.724Z,0
2017-04-12T03:35:33.510Z,0
2017-04-12T03:36:14.072Z,0
2017-04-12T03:36:55.119Z,0
2017-04-12T03:37:35.807Z,0
2017-04-12T03:38:16.813Z,0
2017-04-12T03:38:57.397Z,0
2017-04-12T03:39:37.985Z,0
2017-04-12T03:40:18.874Z,0
2017-04-12T03:40:59.968Z,0
2017-04-12T03:41:41.053Z,0
2017-04-12T03:42:22.246Z,0
2017-04-12T03:43:02.918Z,0
2017-04-12T03:43:43.502Z,0
2017-04-12T03:44:24.758Z,0
2017-04-12T03:45:05.735Z,0
2017-04-12T03:45:46.481Z,0
2017-04-12T03:46:27.203Z,0
2017-04-12T03:47:07.772Z,0
2017-04-12T03:47:48.348Z,0
2017-04-12T03:48:28.928Z,0
2017-04-12T03:49:09.871Z,0
2017-04-12T03:49:50.455Z,0
2017-04-12T03:50:31.039Z,0
2017-04-12T03:51:11.620Z,0
2017-04-12T03:51:52.198Z,0
2017-04-12T03:52:32.783Z,0
2017-04-12T03:53:13.362Z,0
2017-04-12T03:53:53.948Z,0
2017-04-12T03:54:34.534Z,0
2017-04-12T03:55:15.113Z,0
2017-04-12T03:55:55.691Z,0
2017-04-12T03:56:36.265Z,0
2017-04-12T03:57:16.848Z,0
2017-04-12T03:57:57.421Z,0
2017-04-12T03:58:38.005Z,0
2017-04-12T03:59:18.591Z,0
2017-04-12T03:59:59.166Z,0
2017-04-12T04:00:39.748Z,0
2017-04-12T04:01:20.326Z,0
2017-04-12T04:02:00.909Z,0
2017-04-12T04:02:41.483Z,0
2017-04-12T04:03:22.063Z,0
2017-04-12T04:04:02.644Z,0
2017-04-12T04:04:43.219Z,0
2017-04-12T04:05:23.807Z,0
2017-04-12T04:06:04.394Z,0
2017-04-12T04:06:44.968Z,0
2017-04-12T04:09:23.243Z,0
2017-04-12T04:10:03.824Z,0
2017-04-12T04:10:44.406Z,0
2017-04-12T04:11:24.986Z,0
2017-04-12T04:12:05.571Z,0
2017-04-12T04:12:46.152Z,0
2017-04-12T04:13:26.729Z,0
2017-04-12T04:15:44.654Z,0
2017-04-12T04:16:25.231Z,0
2017-04-12T04:17:05.812Z,0
2017-04-12T04:17:46.388Z,0
2017-04-12T04:18:41.846Z,0
2017-04-12T04:19:22.423Z,0
2017-04-12T04:20:03.001Z,0
2017-04-12T04:20:43.579Z,0
2017-04-12T04:21:24.162Z,0
2017-04-12T04:22:04.734Z,0
2017-04-12T04:22:45.313Z,0
2017-04-12T04:23:25.896Z,0
2017-04-12T04:24:06.483Z,0
2017-04-12T04:24:47.061Z,0
2017-04-12T04:25:27.641Z,0
2017-04-12T04:26:08.219Z,0
2017-04-12T04:26:49.678Z,5
2017-04-12T04:27:30.262Z,5
2017-04-12T04:28:10.837Z,5
2017-04-12T04:28:51.412Z,5
2017-04-12T04:29:31.996Z,5
2017-04-12T04:30:12.576Z,5
2017-04-12T04:30:53.145Z,5
2017-04-12T04:31:33.723Z,5
2017-04-12T04:32:14.297Z,5
2017-04-12T04:32:54.880Z,5
2017-04-12T04:33:35.451Z,5
2017-04-12T04:34:16.037Z,10
2017-04-12T04:34:56.642Z,10
2017-04-12T04:35:37.227Z,10
2017-04-12T04:36:17.808Z,10
2017-04-12T04:36:58.380Z,10
2017-04-12T04:37:38.965Z,10
2017-04-12T04:38:19.535Z,15
2017-04-12T04:39:00.118Z,15
2017-04-12T04:39:40.687Z,15
2017-04-12T04:40:21.268Z,15
2017-04-12T04:41:01.851Z,15
2017-04-12T04:41:42.437Z,20
2017-04-12T04:42:23.021Z,20
2017-04-12T04:43:03.599Z,20
2017-04-12T04:43:44.161Z,25
2017-04-12T04:44:24.745Z,25
2017-04-12T04:45:05.336Z,25
2017-04-12T04:45:45.918Z,25
2017-04-12T04:46:26.498Z,30
2017-04-12T04:47:07.083Z,30
2017-04-12T04:47:47.651Z,30
2017-04-12T04:48:28.235Z,30
2017-04-12T04:49:08.803Z,35
2017-04-12T04:49:49.381Z,35
2017-04-12T04:50:29.959Z,35
2017-04-12T04:51:10.535Z,35
2017-04-12T04:52:06.010Z,35
2017-04-12T04:52:46.562Z,40
2017-04-12T04:53:27.136Z,40
2017-04-12T04:54:07.710Z,40
2017-04-12T04:54:48.281Z,40
2017-04-12T04:55:28.870Z,40
2017-04-12T04:56:09.456Z,45
2017-04-12T04:56:50.029Z,45
2017-04-12T04:57:30.609Z,45
2017-04-12T04:58:11.187Z,45
2017-04-12T04:58:51.765Z,50
2017-04-12T04:59:32.341Z,50
2017-04-12T05:00:12.911Z,50
2017-04-12T05:00:53.521Z,50
2017-04-12T05:01:34.069Z,55
2017-04-12T05:02:14.678Z,55
2017-04-12T05:02:55.227Z,55
2017-04-12T05:03:35.800Z,60
2017-04-12T05:04:16.385Z,60
2017-04-12T05:04:56.960Z,65
2017-04-12T05:05:37.542Z,65
2017-04-12T05:08:10.720Z,70
2017-04-12T05:08:51.306Z,75
2017-04-12T05:09:31.879Z,75
2017-04-12T05:11:49.781Z,85
2017-04-12T05:12:30.358Z,85
2017-04-12T05:13:10.942Z,90
2017-04-12T05:13:51.515Z,95
2017-04-12T05:14:32.102Z,100
2017-04-12T05:15:12.681Z,105
2017-04-12T05:15:53.260Z,110
2017-04-12T05:16:33.843Z,110
2017-04-12T05:17:14.419Z,115
2017-04-12T05:17:54.992Z,120
2017-04-12T05:18:35.570Z,125
2017-04-12T05:19:16.157Z,125
2017-04-12T05:19:56.732Z,130
2017-04-12T05:20:37.310Z,130
2017-04-12T05:21:17.891Z,135
2017-04-12T05:21:58.471Z,135
2017-04-12T05:24:31.880Z,150
2017-04-12T05:25:12.465Z,150
2017-04-12T05:25:53.052Z,155
2017-04-12T05:26:33.631Z,160
2017-04-12T05:27:14.212Z,165
2017-04-12T05:27:54.792Z,170
2017-04-12T05:28:35.377Z,170
2017-04-12T05:29:15.943Z,175
2017-04-12T05:29:56.523Z,180
2017-04-12T05:30:37.104Z,180
2017-04-12T05:31:17.677Z,180
2017-04-12T05:31:58.260Z,185
2017-04-12T05:32:38.839Z,190
2017-04-12T05:33:19.409Z,190
2017-04-12T05:34:15.831Z,195
2017-04-12T05:34:56.417Z,200
2017-04-12T05:35:36.993Z,205
2017-04-12T05:36:17.568Z,210
2017-04-12T05:36:58.147Z,220
2017-04-12T05:37:38.737Z,225
2017-04-12T05:38:19.299Z,220
2017-04-12T05:38:59.887Z,220
2017-04-12T05:39:40.451Z,225
2017-04-12T05:40:21.027Z,230
2017-04-12T05:41:01.610Z,235
2017-04-12T05:41:42.189Z,240
2017-04-12T05:42:22.766Z,245
2017-04-12T05:43:03.341Z,250
2017-04-12T05:43:43.918Z,255
2017-04-12T05:44:24.500Z,260
2017-04-12T05:45:05.084Z,260
2017-04-12T05:45:45.666Z,265
2017-04-12T05:46:26.249Z,265
2017-04-12T05:47:06.830Z,265
2017-04-12T05:47:47.408Z,265
2017-04-12T05:48:27.984Z,265
2017-04-12T05:49:08.574Z,265
2017-04-12T05:49:49.133Z,265
2017-04-12T05:50:44.584Z,265
2017-04-12T05:51:25.151Z,265
2017-04-12T05:52:05.736Z,265
2017-04-12T05:52:46.320Z,265
2017-04-12T05:53:26.901Z,265
2017-04-12T05:54:07.483Z,260
2017-04-12T05:54:48.067Z,260
2017-04-12T05:55:28.647Z,255
2017-04-12T05:56:09.236Z,255
2017-04-12T05:56:49.815Z,250
2017-04-12T05:57:30.393Z,245
2017-04-12T05:58:11.013Z,240
2017-04-12T05:58:51.551Z,235
2017-04-12T05:59:32.142Z,235
2017-04-12T06:00:27.587Z,230
2017-04-12T06:01:08.161Z,230
2017-04-12T06:01:48.741Z,230
2017-04-12T06:02:29.351Z,230
2017-04-12T06:03:09.908Z,235
2017-04-12T06:03:50.489Z,240
2017-04-12T06:04:31.066Z,240
2017-04-12T06:05:11.641Z,245
2017-04-12T06:05:52.219Z,255
2017-04-12T06:06:32.800Z,265
2017-04-12T06:07:13.376Z,275
2017-04-12T06:07:53.965Z,280
2017-04-12T06:08:34.544Z,300
2017-04-12T06:09:15.135Z,310
2017-04-12T06:09:55.713Z,330
2017-04-12T06:10:36.299Z,360
2017-04-12T06:11:16.868Z,390
2017-04-12T06:11:57.446Z,415
2017-04-12T06:12:38.071Z,450
2017-04-12T06:13:18.616Z,485
2017-04-12T06:13:59.195Z,515
2017-04-12T06:14:39.775Z,545
2017-04-12T06:15:20.386Z,555
2017-04-12T06:16:00.942Z,590
2017-04-12T06:16:41.524Z,615
2017-04-12T06:17:22.097Z,685
2017-04-12T06:18:02.672Z,905
2017-04-12T06:18:43.256Z,925
2017-04-12T06:19:23.832Z,940
2017-04-12T06:20:04.424Z,815
2017-04-12T06:20:45.003Z,870
2017-04-12T06:21:25.582Z,840
2017-04-12T06:22:06.172Z,845
2017-04-12T06:22:46.744Z,745
2017-04-12T06:23:27.316Z,700
2017-04-12T06:24:07.882Z,635
2017-04-12T06:24:48.470Z,640
2017-04-12T06:25:29.044Z,590
2017-04-12T06:26:09.626Z,570
2017-04-12T06:26:50.205Z,595
2017-04-12T06:27:30.787Z,550
2017-04-12T06:28:11.356Z,530
2017-04-12T06:28:51.937Z,545
2017-04-12T06:29:32.512Z,575
2017-04-12T06:30:13.094Z,610
2017-04-12T06:30:53.675Z,650
2017-04-12T06:31:34.253Z,645
2017-04-12T06:32:14.835Z,630
2017-04-12T06:32:55.421Z,730
2017-04-12T06:33:36.004Z,635
2017-04-12T06:34:16.596Z,765
2017-04-12T06:34:57.168Z,675
2017-04-12T06:35:37.738Z,670
2017-04-12T06:36:18.310Z,630
2017-04-12T06:36:58.889Z,620
2017-04-12T06:37:39.457Z,620
2017-04-12T06:38:20.028Z,605
2017-04-12T06:39:00.613Z,610
2017-04-12T06:39:41.199Z,615
2017-04-12T06:40:21.779Z,690
2017-04-12T06:41:02.359Z,655
2017-04-12T06:41:42.948Z,725
2017-04-12T06:42:23.526Z,815
2017-04-12T06:43:04.113Z,905
2017-04-12T06:43:44.703Z,780
2017-04-12T06:44:25.286Z,1035
2017-04-12T06:45:05.866Z,790
2017-04-12T06:45:46.452Z,885
2017-04-12T06:46:27.067Z,870
2017-04-12T06:47:07.604Z,965
2017-04-12T06:47:48.200Z,1160
2017-04-12T06:48:28.780Z,1100
2017-04-12T06:49:09.346Z,1500
2017-04-12T06:49:49.929Z,1645
2017-04-12T06:50:30.521Z,1780
2017-04-12T06:51:11.102Z,1380
2017-04-12T06:51:51.684Z,2105
2017-04-12T06:52:32.261Z,2110
2017-04-12T06:53:12.843Z,2055
2017-04-12T06:53:53.418Z,2115
2017-04-12T06:56:31.718Z,2140
2017-04-12T06:57:12.291Z,2085
2017-04-12T06:57:52.875Z,1770
2017-04-12T06:58:33.445Z,1600
2017-04-12T06:59:14.023Z,1510
2017-04-12T06:59:54.615Z,1470
2017-04-12T07:00:35.198Z,1355
2017-04-12T07:01:15.777Z,1305
2017-04-12T07:01:56.364Z,1210
2017-04-12T07:02:36.950Z,1195
2017-04-12T07:03:17.524Z,1245
2017-04-12T07:03:58.105Z,1225
2017-04-12T07:04:38.684Z,1195
2017-04-12T07:05:19.270Z,1195
2017-04-12T07:05:59.836Z,1190
2017-04-12T07:06:40.423Z,1175
2017-04-12T07:07:21.012Z,1075
2017-04-12T07:08:01.597Z,1075
2017-04-12T07:08:42.181Z,1130
2017-04-12T07:09:22.768Z,1180
2017-04-12T07:10:03.350Z,1300
2017-04-12T07:10:43.935Z,1210
2017-04-12T07:11:24.519Z,1200
2017-04-12T07:12:05.101Z,1195
2017-04-12T07:12:45.687Z,1155
2017-04-12T07:13:26.269Z,1085
2017-04-12T07:14:06.849Z,1045
2017-04-12T07:14:47.434Z,955
2017-04-12T07:15:28.025Z,975
2017-04-12T07:16:08.606Z,975
2017-04-12T07:16:49.202Z,980
2017-04-12T07:17:29.785Z,985
2017-04-12T07:18:10.367Z,940
2017-04-12T07:18:50.961Z,885
2017-04-12T07:19:31.536Z,875
2017-04-12T07:20:12.114Z,920
2017-04-12T07:20:52.700Z,1005
2017-04-12T07:21:33.281Z,1040
2017-04-12T07:22:13.867Z,1055
2017-04-12T07:22:54.446Z,1000
2017-04-12T07:25:32.737Z,1250
2017-04-12T07:26:13.327Z,1165
2017-04-12T07:26:53.908Z,1255
2017-04-12T07:27:34.483Z,1480
2017-04-12T07:28:15.062Z,1640
2017-04-12T07:28:55.645Z,1600
2017-04-12T07:29:36.219Z,1620
2017-04-12T07:30:16.800Z,1580
2017-04-12T07:30:57.383Z,1675
2017-04-12T07:31:37.963Z,1710
2017-04-12T07:32:18.558Z,1620
2017-04-12T07:32:59.137Z,1720
2017-04-12T07:33:39.732Z,1720
2017-04-12T07:34:20.305Z,1540
2017-04-12T07:35:00.884Z,1380
2017-04-12T07:35:41.462Z,1320
2017-04-12T07:36:22.053Z,1295
2017-04-12T07:37:02.628Z,1315
2017-04-12T07:37:43.204Z,1290
2017-04-12T07:38:23.786Z,1385
2017-04-12T07:39:04.367Z,1480
2017-04-12T07:39:44.952Z,1520
2017-04-12T07:40:25.533Z,1650
2017-04-12T07:41:06.119Z,1760
2017-04-12T07:41:46.712Z,1905
2017-04-12T07:42:27.296Z,2000
2017-04-12T07:43:07.885Z,2110
2017-04-12T07:43:48.470Z,2240
2017-04-12T07:44:29.057Z,2250
2017-04-12T07:45:09.632Z,2280
2017-04-12T07:45:50.220Z,2170
2017-04-12T07:46:30.807Z,2110
2017-04-12T07:47:11.395Z,2205
2017-04-12T07:47:51.971Z,2290
2017-04-12T07:48:32.556Z,2400
2017-04-12T07:49:13.130Z,2405
2017-04-12T07:49:53.723Z,2380
2017-04-12T07:50:34.314Z,2420
2017-04-12T07:51:14.895Z,2470
2017-04-12T07:51:55.477Z,2490
2017-04-12T07:52:36.068Z,2580
2017-04-12T07:53:16.654Z,2665
2017-04-12T07:53:57.239Z,2670
2017-04-12T07:54:37.829Z,2785
2017-04-12T07:55:18.412Z,2880
2017-04-12T07:55:58.999Z,2895
2017-04-12T07:56:39.579Z,2950
2017-04-12T07:57:20.163Z,2970
2017-04-12T07:58:00.748Z,2910
2017-04-12T07:58:41.333Z,2745
2017-04-12T07:59:21.917Z,2390
2017-04-12T08:01:39.851Z,2145
2017-04-12T08:02:20.440Z,2025
2017-04-12T08:03:01.028Z,1790
2017-04-12T08:03:41.620Z,1595
2017-04-12T08:04:22.201Z,1475
2017-04-12T08:05:02.784Z,1465
2017-04-12T08:05:43.374Z,1475
2017-04-12T08:06:23.957Z,1540
2017-04-12T08:07:04.540Z,1550
2017-04-12T08:07:45.130Z,1495
2017-04-12T08:08:25.713Z,1620
2017-04-12T08:09:06.295Z,1530
2017-04-12T08:09:46.867Z,1485
2017-04-12T08:10:27.455Z,1500
2017-04-12T08:11:08.036Z,1495
2017-04-12T08:11:48.617Z,1515
2017-04-12T08:12:29.207Z,1635
2017-04-12T08:13:09.794Z,1750
2017-04-12T08:13:50.378Z,1950
2017-04-12T08:14:30.986Z,2190
2017-04-12T08:15:11.531Z,2245
2017-04-12T08:15:52.116Z,2280
2017-04-12T08:16:32.699Z,2215
2017-04-12T08:17:13.279Z,2170
2017-04-12T08:17:53.863Z,2220
2017-04-12T08:18:34.450Z,2305
2017-04-12T08:19:15.030Z,2445
2017-04-12T08:19:55.613Z,2635
2017-04-12T08:20:36.192Z,2745
2017-04-12T08:21:16.783Z,2815
2017-04-12T08:21:57.351Z,2865
2017-04-12T08:22:37.937Z,2695
2017-04-12T08:23:18.521Z,2635
2017-04-12T08:23:59.104Z,2550
2017-04-12T08:24:39.684Z,2395
2017-04-12T08:25:20.267Z,2455
2017-04-12T08:26:00.849Z,2425
2017-04-12T08:26:41.423Z,2405
2017-04-12T08:27:21.999Z,2245
2017-04-12T08:28:02.590Z,2060
2017-04-12T08:30:35.792Z,1760
2017-04-12T08:31:16.365Z,1855
2017-04-12T08:31:56.944Z,1855
2017-04-12T08:32:37.527Z,1855
2017-04-12T08:33:18.110Z,1995
2017-04-12T08:33:58.683Z,1920
2017-04-12T08:34:39.264Z,1900
2017-04-12T08:35:19.849Z,1860
2017-04-12T08:36:00.435Z,1930
2017-04-12T08:36:41.026Z,1995
2017-04-12T08:37:21.608Z,1985
2017-04-12T08:38:02.189Z,1980
2017-04-12T08:38:42.774Z,2035
2017-04-12T08:39:23.359Z,2100
2017-04-12T08:40:03.925Z,2320
2017-04-12T08:40:44.501Z,2255
2017-04-12T08:41:25.075Z,2300
2017-04-12T08:42:05.659Z,2235
2017-04-12T08:42:46.245Z,2105
2017-04-12T08:43:26.830Z,1925
2017-04-12T08:44:07.415Z,1790
2017-04-12T08:44:47.995Z,1710
2017-04-12T08:45:28.575Z,1665
2017-04-12T08:46:09.160Z,1650
2017-04-12T08:46:49.747Z,1685
2017-04-12T08:47:30.330Z,1580
2017-04-12T08:48:10.917Z,1505
2017-04-12T08:48:51.504Z,1755
2017-04-12T08:49:32.089Z,1760
2017-04-12T08:50:12.680Z,1750
2017-04-12T08:50:53.256Z,1810
2017-04-12T08:51:33.838Z,1825
2017-04-12T08:52:14.430Z,1905
2017-04-12T08:52:55.018Z,1995
2017-04-12T08:53:35.593Z,2020
2017-04-12T08:54:16.200Z,2045
2017-04-12T08:54:56.765Z,2075
2017-04-12T08:55:37.352Z,2085
2017-04-12T08:56:17.943Z,2075
2017-04-12T08:56:58.516Z,2010
2017-04-12T08:57:39.090Z,2010
2017-04-12T08:58:19.671Z,2020
2017-04-12T08:59:00.254Z,1905
2017-04-12T08:59:40.829Z,1830
2017-04-12T09:00:21.413Z,1640
2017-04-12T09:01:01.994Z,1435
2017-04-12T09:01:42.585Z,1295
2017-04-12T09:02:23.184Z,1225
2017-04-12T09:03:03.770Z,1200
2017-04-12T09:03:44.351Z,1190
2017-04-12T09:04:24.931Z,1190
2017-04-12T09:05:05.515Z,1190
2017-04-12T09:05:46.094Z,1195
2017-04-12T09:06:26.681Z,1195
2017-04-12T09:07:07.268Z,1185
2017-04-12T09:07:47.851Z,1180
2017-04-12T09:08:28.427Z,1170
2017-04-12T09:09:09.002Z,1155
2017-04-12T09:09:49.604Z,1155
2017-04-12T09:10:30.190Z,1150
2017-04-12T09:11:10.770Z,1150
2017-04-12T09:11:51.362Z,1140
2017-04-12T09:12:31.945Z,1135
2017-04-12T09:13:12.532Z,1125
2017-04-12T09:13:53.107Z,1105
2017-04-12T09:14:33.707Z,1105
2017-04-12T09:15:14.289Z,1095
2017-04-12T09:17:52.592Z,1085
2017-04-12T09:18:33.179Z,1080
2017-04-12T09:19:13.754Z,1075
2017-04-12T09:19:54.330Z,1075
2017-04-12T09:20:34.919Z,1070
2017-04-12T09:21:15.504Z,1055
2017-04-12T09:21:56.086Z,1060
2017-04-12T09:22:36.667Z,1060
2017-04-12T09:23:17.244Z,1060
2017-04-12T09:23:57.827Z,1065
2017-04-12T09:24:38.409Z,1060
2017-04-12T09:25:18.994Z,1055
2017-04-12T09:25:59.583Z,1045
2017-04-12T09:26:40.159Z,1040
2017-04-12T09:27:20.730Z,1030
2017-04-12T09:28:01.309Z,1025
2017-04-12T09:28:41.897Z,1020
2017-04-12T09:29:22.484Z,1015
2017-04-12T09:30:03.072Z,1005
2017-04-12T09:30:43.657Z,1010
2017-04-12T09:31:24.234Z,1010
2017-04-12T09:32:04.802Z,1005
2017-04-12T09:32:45.386Z,1000
2017-04-12T09:33:25.978Z,990
2017-04-12T09:34:06.557Z,985
2017-04-12T09:34:47.146Z,985
2017-04-12T09:35:27.730Z,985
2017-04-12T09:36:08.316Z,985
2017-04-12T09:36:48.900Z,975
2017-04-12T09:37:29.484Z,975
2017-04-12T09:38:10.066Z,975
2017-04-12T09:38:50.650Z,980
2017-04-12T09:41:24.068Z,965
2017-04-12T09:42:04.647Z,965
2017-04-12T09:42:45.240Z,960
2017-04-12T09:43:25.822Z,960
2017-04-12T09:44:06.408Z,965
2017-04-12T09:44:46.990Z,970
2017-04-12T09:45:27.572Z,965
2017-04-12T09:46:08.155Z,960
2017-04-12T09:46:48.741Z,960
2017-04-12T09:47:29.327Z,950
2017-04-12T09:48:09.910Z,950
2017-04-12T09:50:28.091Z,935
2017-04-12T09:51:08.673Z,935
2017-04-12T09:51:49.257Z,930
2017-04-12T09:52:29.834Z,920
2017-04-12T09:53:10.411Z,915
2017-04-12T09:53:51.874Z,910
2017-04-12T09:54:32.456Z,910
2017-04-12T09:57:10.754Z,890
2017-04-12T09:57:51.337Z,885
2017-04-12T09:58:31.911Z,880
2017-04-12T09:59:12.495Z,880
2017-04-12T09:59:53.080Z,870
2017-04-12T10:00:33.667Z,865
2017-04-12T10:01:14.245Z,860
2017-04-12T10:01:54.823Z,860
2017-04-12T10:02:35.410Z,860
2017-04-12T10:03:30.771Z,855
2017-04-12T10:04:11.351Z,855
2017-04-12T10:04:51.933Z,855
2017-04-12T10:05:32.517Z,855